Time;durP1;ratioP1;P1;durP2;ratioP2;P2;SDS_P1;SDS_P2;PMS_P1;PMS_P2;Temp;Humidity;BMP_temperature;BMP_pressure;BME280_temperature;BME280_humidity;BME280_pressure;Samples;Min_cycle;Max_cycle;Signal;HPM_P1;HPM_P2
2023/10/06 00:00:40;;;;;;;8.13;4.28;;;;;;;;;;6097614;23;20174;-93
2023/10/06 00:03:45;;;;;;;9.38;4.60;;;;;;;;;;6097528;23;20626;-93
2023/10/06 00:06:50;;;;;;;13.00;4.45;;;;;;;;;;6097166;23;20197;-90
2023/10/06 00:09:56;;;;;;;10.68;4.95;;;;;;;;;;6113217;23;20153;-90
2023/10/06 00:13:05;;;;;;;10.48;4.65;;;;;;;;;;6097716;23;20170;-93
2023/10/06 00:16:11;;;;;;;14.98;6.15;;;;;;;;;;6098761;23;20173;-93
2023/10/06 00:19:31;;;;;;;18.15;5.97;;;;;;;;;;6098826;23;20157;-94
2023/10/06 00:22:37;;;;;;;15.63;6.15;;;;;;;;;;6098769;23;20173;-94
2023/10/06 00:25:43;;;;;;;17.98;6.50;;;;;;;;;;6098194;23;20226;-92
2023/10/06 00:28:50;;;;;;;14.95;6.05;;;;;;;;;;6097264;23;20214;-92
2023/10/06 00:32:00;;;;;;;17.25;6.95;;;;;;;;;;6114233;23;20187;-91
2023/10/06 00:35:11;;;;;;;19.42;7.25;;;;;;;;;;6115101;23;20182;-94
2023/10/06 00:38:17;;;;;;;19.35;7.28;;;;;;;;;;6098683;23;20174;-92
2023/10/06 00:41:23;;;;;;;15.93;6.93;;;;;;;;;;6098129;23;20165;-95
2023/10/06 00:44:30;;;;;;;15.38;6.78;;;;;;;;;;6098007;23;20218;-93
2023/10/06 00:47:39;;;;;;;15.95;6.63;;;;;;;;;;6098381;23;20234;-95
2023/10/06 00:50:45;;;;;;;14.80;6.55;;;;;;;;;;6114247;23;20174;-94
2023/10/06 00:53:51;;;;;;;14.82;7.05;;;;;;;;;;6097372;23;20498;-92
2023/10/06 00:56:58;;;;;;;13.55;6.63;;;;;;;;;;6097216;23;20218;-94
2023/10/06 01:00:15;;;;;;;12.82;6.40;;;;;;;;;;6097681;23;20275;-94
2023/10/06 01:03:21;;;;;;;10.73;5.70;;;;;;;;;;6097442;23;20175;-92
2023/10/06 01:06:33;;;;;;;15.23;6.25;;;;;;;;;;6097885;23;20198;-93
2023/10/06 01:09:38;;;;;;;16.33;6.13;;;;;;;;;;6101296;23;20179;-94
2023/10/06 01:12:44;;;;;;;11.93;5.50;;;;;;;;;;6099036;23;20203;-92
2023/10/06 01:15:56;;;;;;;14.02;6.65;;;;;;;;;;6099342;23;20614;-93
2023/10/06 01:19:14;;;;;;;15.25;6.88;;;;;;;;;;6097941;23;20223;-95
2023/10/06 01:22:24;;;;;;;19.13;7.50;;;;;;;;;;6097739;23;20174;-93
2023/10/06 01:25:34;;;;;;;15.00;6.80;;;;;;;;;;6096259;23;20182;-92
2023/10/06 01:28:45;;;;;;;14.15;7.18;;;;;;;;;;6096560;23;20658;-94
2023/10/06 01:31:51;;;;;;;17.08;7.00;;;;;;;;;;6096127;23;20174;-93
2023/10/06 01:34:56;;;;;;;13.27;7.18;;;;;;;;;;6114321;23;20195;-94
2023/10/06 01:38:05;;;;;;;14.70;7.05;;;;;;;;;;6097687;23;20249;-93
2023/10/06 01:41:11;;;;;;;14.60;7.05;;;;;;;;;;6099734;23;20153;-95
2023/10/06 01:44:17;;;;;;;15.55;7.32;;;;;;;;;;6098752;23;20170;-92
2023/10/06 01:47:23;;;;;;;23.95;7.97;;;;;;;;;;6098005;23;20186;-93
2023/10/06 01:50:28;;;;;;;13.38;7.53;;;;;;;;;;6115198;23;20173;-94
2023/10/06 01:53:35;;;;;;;16.50;7.85;;;;;;;;;;6097344;23;20249;-91
2023/10/06 01:56:42;;;;;;;17.95;8.32;;;;;;;;;;6098152;23;20222;-93
2023/10/06 01:59:49;;;;;;;16.08;7.28;;;;;;;;;;6098024;23;20178;-92
2023/10/06 02:02:54;;;;;;;14.13;7.85;;;;;;;;;;6097186;23;20158;-93
2023/10/06 02:06:03;;;;;;;12.70;7.28;;;;;;;;;;6098202;23;20178;-93
2023/10/06 02:09:15;;;;;;;40.53;8.15;;;;;;;;;;6096734;23;20181;-96
2023/10/06 02:12:21;;;;;;;43.35;8.40;;;;;;;;;;6096868;23;20294;-91
2023/10/06 02:15:26;;;;;;;17.58;7.45;;;;;;;;;;6098678;23;20186;-95
2023/10/06 02:18:36;;;;;;;20.00;8.02;;;;;;;;;;6098421;23;20190;-93
2023/10/06 02:21:44;;;;;;;12.05;6.97;;;;;;;;;;6097555;23;20182;-94
2023/10/06 02:24:51;;;;;;;14.68;7.50;;;;;;;;;;6114435;23;20218;-93
2023/10/06 02:27:59;;;;;;;16.38;7.07;;;;;;;;;;6100068;23;20165;-94
2023/10/06 02:31:05;;;;;;;34.35;7.80;;;;;;;;;;6114303;23;20238;-93
2023/10/06 02:34:21;;;;;;;31.25;8.43;;;;;;;;;;6097989;23;20181;-89
2023/10/06 02:37:28;;;;;;;15.48;7.70;;;;;;;;;;6097065;23;20198;-92
2023/10/06 02:40:44;;;;;;;18.05;8.13;;;;;;;;;;6113258;23;20181;-95
2023/10/06 02:43:49;;;;;;;24.38;7.95;;;;;;;;;;6096940;23;20210;-94
2023/10/06 02:46:55;;;;;;;17.08;7.10;;;;;;;;;;6095829;23;20300;-92
2023/10/06 02:50:00;;;;;;;39.58;9.13;;;;;;;;;;6095374;23;20182;-92
2023/10/06 02:53:13;;;;;;;59.60;8.35;;;;;;;;;;6095834;23;20525;-94
2023/10/06 02:56:28;;;;;;;75.35;8.63;;;;;;;;;;6119113;23;20165;-92
2023/10/06 02:59:35;;;;;;;29.17;8.27;;;;;;;;;;6096027;23;20173;-93
2023/10/06 03:02:40;;;;;;;24.08;7.95;;;;;;;;;;6094507;23;20236;-91
2023/10/06 03:05:49;;;;;;;38.78;7.95;;;;;;;;;;6096846;23;20178;-94
2023/10/06 03:08:55;;;;;;;46.80;8.13;;;;;;;;;;6078619;23;20170;-91
2023/10/06 03:12:10;;;;;;;15.68;6.95;;;;;;;;;;6095072;23;20500;-94
2023/10/06 03:15:28;;;;;;;69.03;9.13;;;;;;;;;;6094525;23;20173;-92
2023/10/06 03:18:35;;;;;;;90.43;9.38;;;;;;;;;;6096568;23;20243;-93
2023/10/06 03:21:45;;;;;;;20.42;8.10;;;;;;;;;;6095204;23;20206;-93
2023/10/06 03:24:58;;;;;;;32.30;7.88;;;;;;;;;;6094261;23;20246;-94
2023/10/06 03:28:07;;;;;;;56.17;8.30;;;;;;;;;;6095244;23;20193;-92
2023/10/06 03:31:30;;;;;;;53.72;9.63;;;;;;;;;;6112372;23;20170;-92
2023/10/06 03:34:36;;;;;;;20.13;8.60;;;;;;;;;;6097091;23;20254;-94
2023/10/06 03:37:51;;;;;;;12.68;7.03;;;;;;;;;;6095757;23;20170;-92
2023/10/06 03:41:13;;;;;;;16.13;7.60;;;;;;;;;;6094686;23;20238;-92
2023/10/06 03:44:26;;;;;;;14.23;7.15;;;;;;;;;;6095837;23;20211;-91
2023/10/06 03:47:33;;;;;;;24.58;8.25;;;;;;;;;;6096329;23;20294;-93
2023/10/06 03:50:39;;;;;;;17.15;7.80;;;;;;;;;;6097406;23;20170;-94
2023/10/06 03:53:47;;;;;;;21.80;7.85;;;;;;;;;;6103783;23;20175;-95
2023/10/06 03:56:52;;;;;;;34.08;7.50;;;;;;;;;;6098376;23;20173;-92
2023/10/06 04:00:01;;;;;;;32.17;7.30;;;;;;;;;;6098261;23;20244;-92
2023/10/06 04:03:09;;;;;;;18.48;7.63;;;;;;;;;;6098131;23;20170;-94
2023/10/06 04:06:15;;;;;;;16.42;8.13;;;;;;;;;;6096817;23;20170;-93
2023/10/06 04:09:22;;;;;;;23.13;8.07;;;;;;;;;;6096964;23;20157;-94
2023/10/06 04:12:31;;;;;;;23.13;7.90;;;;;;;;;;6095648;23;20195;-94
2023/10/06 04:15:38;;;;;;;17.98;7.78;;;;;;;;;;6096536;23;20174;-92
2023/10/06 04:18:47;;;;;;;24.63;8.20;;;;;;;;;;6096103;23;20225;-94
2023/10/06 04:21:52;;;;;;;18.95;8.57;;;;;;;;;;6096688;23;20169;-94
2023/10/06 04:24:59;;;;;;;17.60;8.45;;;;;;;;;;6098565;23;20157;-93
2023/10/06 04:28:05;;;;;;;19.17;8.80;;;;;;;;;;6098138;23;20251;-94
2023/10/06 04:31:12;;;;;;;24.45;8.75;;;;;;;;;;6098536;23;20185;-92
2023/10/06 04:34:27;;;;;;;19.17;8.38;;;;;;;;;;6099795;23;20169;-93
2023/10/06 04:37:33;;;;;;;16.73;7.90;;;;;;;;;;6099064;23;20177;-94
2023/10/06 04:40:38;;;;;;;22.65;7.85;;;;;;;;;;6117519;23;20154;-93
2023/10/06 04:43:44;;;;;;;20.30;8.30;;;;;;;;;;6098779;23;20586;-93
2023/10/06 04:46:57;;;;;;;20.50;8.75;;;;;;;;;;6096047;23;20218;-91
2023/10/06 04:50:03;;;;;;;22.00;8.00;;;;;;;;;;6098583;23;20170;-93
2023/10/06 04:53:16;;;;;;;19.00;7.32;;;;;;;;;;6115192;23;20178;-91
2023/10/06 04:56:22;;;;;;;31.25;8.05;;;;;;;;;;6097936;23;20170;-94
2023/10/06 04:59:28;;;;;;;22.30;7.70;;;;;;;;;;6100155;23;20166;-92
2023/10/06 05:02:38;;;;;;;36.45;8.05;;;;;;;;;;6114500;23;20173;-91
2023/10/06 05:05:44;;;;;;;30.38;8.00;;;;;;;;;;6117944;23;20199;-95
2023/10/06 05:08:50;;;;;;;21.02;7.95;;;;;;;;;;6116058;23;20177;-96
2023/10/06 05:12:04;;;;;;;22.30;7.97;;;;;;;;;;6098877;23;20187;-92
2023/10/06 05:22:06;;;;;;;12.73;7.72;;;;;;;;;;6101012;23;20536;-91
2023/10/06 05:25:13;;;;;;;32.05;7.72;;;;;;;;;;6102566;23;20187;-91
2023/10/06 05:31:45;;;;;;;21.17;8.30;;;;;;;;;;6102385;23;20246;-92
2023/10/06 06:15:56;;;;;;;17.17;6.18;;;;;;;;;;6066941;23;20211;-89
2023/10/06 06:19:01;;;;;;;19.70;6.85;;;;;;;;;;6084791;23;20509;-89
2023/10/06 06:22:09;;;;;;;15.43;6.13;;;;;;;;;;6111247;23;20246;-88
2023/10/06 06:25:13;;;;;;;32.63;6.45;;;;;;;;;;6096699;23;20198;-89
2023/10/06 06:28:20;;;;;;;19.98;7.28;;;;;;;;;;6112697;23;20185;-91
2023/10/06 06:31:28;;;;;;;14.98;7.05;;;;;;;;;;6099252;23;20189;-89
2023/10/06 06:34:33;;;;;;;15.35;7.57;;;;;;;;;;6115873;23;20178;-89
2023/10/06 06:37:41;;;;;;;19.83;6.72;;;;;;;;;;6116062;23;20154;-91
2023/10/06 06:40:48;;;;;;;21.25;10.80;;;;;;;;;;6100261;23;20158;-89
2023/10/06 06:43:58;;;;;;;12.65;7.20;;;;;;;;;;6100678;23;20174;-87
2023/10/06 06:47:05;;;;;;;20.75;7.18;;;;;;;;;;6100721;23;20234;-90
2023/10/06 06:50:12;;;;;;;22.33;8.02;;;;;;;;;;6100128;23;20170;-89
2023/10/06 06:53:18;;;;;;;14.10;6.53;;;;;;;;;;6100277;23;20173;-92
2023/10/06 06:56:24;;;;;;;14.25;6.82;;;;;;;;;;6099895;23;20214;-89
2023/10/06 06:59:30;;;;;;;15.93;6.72;;;;;;;;;;6100273;23;20161;-92
2023/10/06 07:02:48;;;;;;;17.77;7.32;;;;;;;;;;6099976;23;20574;-88
2023/10/06 07:05:57;;;;;;;21.70;8.20;;;;;;;;;;6102109;23;20171;-94
2023/10/06 07:12:23;;;;;;;25.25;8.00;;;;;;;;;;6100963;23;20229;-92
2023/10/06 07:15:29;;;;;;;22.58;7.50;;;;;;;;;;6100845;23;20194;-93
2023/10/06 08:32:06;;;;;;;16.98;8.23;;;;;;;;;;6078881;23;20223;-92
2023/10/06 08:35:13;;;;;;;16.77;7.78;;;;;;;;;;6102235;23;20186;-92
2023/10/06 08:38:18;;;;;;;16.88;7.68;;;;;;;;;;6102292;23;20169;-94
2023/10/06 08:41:26;;;;;;;14.18;7.40;;;;;;;;;;6120664;23;20170;-91
2023/10/06 08:44:34;;;;;;;13.90;6.93;;;;;;;;;;6105396;23;20174;-92
2023/10/06 08:47:44;;;;;;;15.73;7.57;;;;;;;;;;6104196;23;20234;-92
2023/10/06 08:50:53;;;;;;;15.15;7.82;;;;;;;;;;6103308;23;20257;-93
2023/10/06 08:54:00;;;;;;;15.10;7.13;;;;;;;;;;6103635;23;20198;-93
2023/10/06 08:57:05;;;;;;;16.20;7.13;;;;;;;;;;6101669;23;20195;-94
2023/10/06 09:00:11;;;;;;;13.82;6.88;;;;;;;;;;6103199;23;20215;-91
2023/10/06 09:03:22;;;;;;;12.43;6.15;;;;;;;;;;6103673;23;20194;-90
2023/10/06 09:06:27;;;;;;;11.75;6.40;;;;;;;;;;6102556;23;20194;-92
2023/10/06 09:09:33;;;;;;;16.77;7.75;;;;;;;;;;6104738;23;20178;-92
2023/10/06 09:19:21;;;;;;;12.48;6.78;;;;;;;;;;6099655;23;20247;-93
2023/10/06 09:22:36;;;;;;;14.25;6.20;;;;;;;;;;6099851;23;20169;-89
2023/10/06 09:25:45;;;;;;;21.48;6.75;;;;;;;;;;6100130;23;20215;-95
2023/10/06 09:32:20;;;;;;;13.45;6.40;;;;;;;;;;6098990;23;20169;-94
2023/10/06 09:35:29;;;;;;;15.20;6.00;;;;;;;;;;6101309;23;20329;-92
2023/10/06 09:38:34;;;;;;;14.13;5.70;;;;;;;;;;6098141;23;20174;-93
2023/10/06 09:41:41;;;;;;;18.55;6.13;;;;;;;;;;6100171;23;20219;-93
2023/10/06 09:44:48;;;;;;;11.52;5.85;;;;;;;;;;6098831;23;20606;-92
2023/10/06 09:47:56;;;;;;;16.15;6.10;;;;;;;;;;6100984;23;20263;-93
2023/10/06 09:51:06;;;;;;;27.10;5.65;;;;;;;;;;6099459;23;20190;-93
2023/10/06 09:54:13;;;;;;;13.20;5.53;;;;;;;;;;6098755;23;20214;-94
2023/10/06 09:57:20;;;;;;;14.30;5.28;;;;;;;;;;6099088;23;20150;-93
2023/10/06 10:00:29;;;;;;;16.63;5.60;;;;;;;;;;6098827;23;20174;-89
2023/10/06 10:03:37;;;;;;;18.02;5.47;;;;;;;;;;6097741;23;20187;-93
2023/10/06 10:06:46;;;;;;;16.30;5.60;;;;;;;;;;6097930;23;20204;-93
2023/10/06 10:09:52;;;;;;;14.30;4.57;;;;;;;;;;6098036;23;20191;-91
2023/10/06 10:13:19;;;;;;;12.63;4.20;;;;;;;;;;6098313;23;20178;-91
2023/10/06 10:16:41;;;;;;;16.05;2.30;;;;;;;;;;6099665;23;20170;-92
2023/10/06 10:19:49;;;;;;;8.93;2.78;;;;;;;;;;6097955;23;20169;-93
2023/10/06 10:23:00;;;;;;;9.98;2.90;;;;;;;;;;6098316;23;20154;-91
2023/10/06 10:26:16;;;;;;;8.85;3.50;;;;;;;;;;6098081;23;20214;-93
2023/10/06 10:29:33;;;;;;;8.70;2.35;;;;;;;;;;6097047;23;20697;-93
2023/10/06 10:32:45;;;;;;;9.82;2.70;;;;;;;;;;6097882;23;20166;-93
2023/10/06 10:36:11;;;;;;;11.13;2.92;;;;;;;;;;6098423;23;20634;-92
2023/10/06 10:39:21;;;;;;;12.02;3.10;;;;;;;;;;6098871;23;20173;-92
2023/10/06 10:42:39;;;;;;;14.10;3.67;;;;;;;;;;6098644;23;20178;-94
2023/10/06 10:45:45;;;;;;;10.95;3.13;;;;;;;;;;6097341;23;20174;-91
2023/10/06 10:48:52;;;;;;;16.45;3.63;;;;;;;;;;6112828;23;20198;-89
2023/10/06 10:52:06;;;;;;;12.05;3.13;;;;;;;;;;6096228;23;20242;-94
2023/10/06 10:55:32;;;;;;;11.15;3.05;;;;;;;;;;6096011;23;20202;-94
2023/10/06 10:58:56;;;;;;;10.18;3.50;;;;;;;;;;6100327;23;20240;-94
2023/10/06 11:02:09;;;;;;;10.55;3.35;;;;;;;;;;6100449;23;20214;-91
2023/10/06 11:05:16;;;;;;;9.75;3.47;;;;;;;;;;6102263;23;20191;-93
2023/10/06 11:08:23;;;;;;;13.40;3.55;;;;;;;;;;6101212;23;20193;-92
2023/10/06 11:11:30;;;;;;;18.10;3.88;;;;;;;;;;6100696;23;20198;-92
2023/10/06 12:16:25;;;;;;;10.70;3.47;;;;;;;;;;6077013;23;20242;-95
2023/10/06 12:19:32;;;;;;;12.25;3.30;;;;;;;;;;6099476;23;20178;-94
2023/10/06 12:22:43;;;;;;;10.00;4.28;;;;;;;;;;6099112;23;20174;-93
2023/10/06 12:25:49;;;;;;;14.40;3.55;;;;;;;;;;6100350;23;20214;-95
2023/10/06 12:28:55;;;;;;;8.57;3.30;;;;;;;;;;6100352;23;20198;-93
2023/10/06 12:32:02;;;;;;;8.25;3.03;;;;;;;;;;6113599;23;20210;-90
2023/10/06 12:35:08;;;;;;;9.40;3.20;;;;;;;;;;6097402;23;20246;-93
2023/10/06 12:38:15;;;;;;;8.25;3.15;;;;;;;;;;6097584;23;20175;-91
2023/10/06 12:41:20;;;;;;;11.00;3.40;;;;;;;;;;6113019;23;20166;-91
2023/10/06 12:44:27;;;;;;;10.90;3.65;;;;;;;;;;6098089;23;20186;-91
2023/10/06 12:47:38;;;;;;;13.75;3.85;;;;;;;;;;6098391;23;20218;-93
2023/10/06 12:50:44;;;;;;;10.32;3.65;;;;;;;;;;6098251;23;20150;-91
2023/10/06 12:53:49;;;;;;;13.02;4.00;;;;;;;;;;6097036;23;20170;-92
2023/10/06 12:56:54;;;;;;;10.77;3.50;;;;;;;;;;6097573;23;20174;-94
2023/10/06 13:00:00;;;;;;;12.32;3.50;;;;;;;;;;6096986;23;20181;-90
2023/10/06 13:03:15;;;;;;;10.90;4.28;;;;;;;;;;6113810;23;20174;-88
2023/10/06 13:06:22;;;;;;;12.07;3.50;;;;;;;;;;6094126;23;20206;-92
2023/10/06 13:09:28;;;;;;;10.18;3.53;;;;;;;;;;6093473;23;20201;-92
2023/10/06 13:12:33;;;;;;;9.52;3.53;;;;;;;;;;6092828;23;20207;-91
2023/10/06 13:15:40;;;;;;;11.32;3.85;;;;;;;;;;6108371;23;20238;-91
2023/10/06 13:18:48;;;;;;;13.35;3.70;;;;;;;;;;6094668;23;20161;-93
2023/10/06 13:21:53;;;;;;;11.75;3.72;;;;;;;;;;6094761;23;20161;-93
2023/10/06 13:25:00;;;;;;;10.43;3.80;;;;;;;;;;6102328;23;20219;-92
2023/10/06 14:09:11;;;;;;;14.68;5.15;;;;;;;;;;6073625;23;20206;-92
2023/10/06 14:12:22;;;;;;;13.00;4.72;;;;;;;;;;6098940;23;20162;-91
2023/10/06 14:15:40;;;;;;;11.38;4.05;;;;;;;;;;6100037;23;20178;-91
2023/10/06 14:18:45;;;;;;;11.57;3.40;;;;;;;;;;6094838;23;20178;-92
2023/10/06 14:21:50;;;;;;;11.40;4.50;;;;;;;;;;6112421;23;20174;-91
2023/10/06 14:24:59;;;;;;;17.15;4.13;;;;;;;;;;6093203;23;20240;-92
2023/10/06 14:28:07;;;;;;;10.00;3.55;;;;;;;;;;6109656;23;20178;-90
2023/10/06 14:31:24;;;;;;;12.52;4.22;;;;;;;;;;6093974;23;20170;-92
2023/10/06 14:34:46;;;;;;;15.02;3.97;;;;;;;;;;6093717;23;20214;-92
2023/10/06 14:48:02;;;;;;;14.32;3.63;;;;;;;;;;6111582;23;20166;-92
2023/10/06 14:51:08;;;;;;;16.35;4.47;;;;;;;;;;6094739;23;20174;-89
2023/10/06 14:54:13;;;;;;;18.60;4.70;;;;;;;;;;6114265;23;20155;-93
2023/10/06 14:57:21;;;;;;;13.48;4.32;;;;;;;;;;6116767;23;20219;-93
2023/10/06 15:00:32;;;;;;;11.70;4.03;;;;;;;;;;6083300;23;20195;-93
2023/10/06 15:33:09;;;;;;;9.60;4.05;;;;;;;;;;6077235;23;20244;-90
2023/10/06 15:36:16;;;;;;;11.13;3.80;;;;;;;;;;6095123;23;20178;-91
2023/10/06 15:39:22;;;;;;;12.38;3.83;;;;;;;;;;6095585;23;20177;-90
2023/10/06 15:42:37;;;;;;;10.65;3.63;;;;;;;;;;6112324;23;20178;-91
2023/10/06 15:45:43;;;;;;;12.30;3.88;;;;;;;;;;6093660;23;20592;-91
2023/10/06 15:48:55;;;;;;;12.07;3.70;;;;;;;;;;6095594;23;20202;-92
2023/10/06 15:52:00;;;;;;;14.60;3.90;;;;;;;;;;6094176;23;20633;-93
2023/10/06 15:55:09;;;;;;;14.38;3.67;;;;;;;;;;6112250;23;20178;-93
2023/10/06 15:58:15;;;;;;;13.70;4.25;;;;;;;;;;6094529;23;20178;-90
2023/10/06 16:01:20;;;;;;;12.13;4.18;;;;;;;;;;6093443;23;20177;-87
2023/10/06 16:07:52;;;;;;;17.02;5.65;;;;;;;;;;6113875;23;20214;-90
2023/10/06 16:11:00;;;;;;;19.25;5.47;;;;;;;;;;6112441;23;20174;-90
2023/10/06 16:14:05;;;;;;;24.10;9.40;;;;;;;;;;6095198;23;20189;-90
2023/10/06 16:17:11;;;;;;;23.52;7.07;;;;;;;;;;6097005;23;20170;-91
2023/10/06 16:29:11;;;;;;;15.02;4.88;;;;;;;;;;6095513;23;20206;-94
2023/10/06 21:33:05;;;;;;;16.23;6.45;;;;;;;;;;6101988;23;20210;-93
2023/10/06 21:36:11;;;;;;;14.95;6.20;;;;;;;;;;6096815;23;20190;-93
2023/10/06 21:39:18;;;;;;;18.60;6.82;;;;;;;;;;6098055;23;20235;-95
2023/10/06 21:42:23;;;;;;;16.35;5.47;;;;;;;;;;6095704;23;20765;-93
2023/10/06 21:45:32;;;;;;;13.10;6.07;;;;;;;;;;6094801;23;20161;-93
2023/10/06 21:48:41;;;;;;;16.65;6.00;;;;;;;;;;6093449;23;20169;-94
2023/10/06 21:51:46;;;;;;;12.75;5.68;;;;;;;;;;6111598;23;20167;-92
2023/10/06 21:54:55;;;;;;;16.60;6.18;;;;;;;;;;6096888;23;20206;-94
2023/10/06 21:58:00;;;;;;;14.65;5.80;;;;;;;;;;6096062;23;20165;-92
2023/10/06 22:01:13;;;;;;;13.68;6.00;;;;;;;;;;6098534;23;20178;-93
2023/10/06 22:04:20;;;;;;;16.92;5.75;;;;;;;;;;6096676;23;20187;-93
2023/10/06 22:07:26;;;;;;;16.02;6.20;;;;;;;;;;6096606;23;20174;-93
2023/10/06 22:10:34;;;;;;;15.65;6.47;;;;;;;;;;6098573;23;20640;-93
2023/10/06 22:13:44;;;;;;;18.70;6.93;;;;;;;;;;6097475;23;20178;-93
2023/10/06 22:16:50;;;;;;;20.42;6.75;;;;;;;;;;6099236;23;20173;-93
2023/10/06 22:19:58;;;;;;;17.67;7.00;;;;;;;;;;6098092;23;20225;-92
2023/10/06 22:23:05;;;;;;;16.77;7.03;;;;;;;;;;6098826;23;20169;-94
2023/10/06 22:26:14;;;;;;;14.18;6.30;;;;;;;;;;6099807;23;20182;-93
2023/10/06 22:29:20;;;;;;;13.57;5.60;;;;;;;;;;6098647;23;20241;-95
2023/10/06 22:32:30;;;;;;;18.20;6.53;;;;;;;;;;6100869;23;20188;-93
2023/10/06 22:35:40;;;;;;;14.88;6.07;;;;;;;;;;6100539;23;20178;-93
2023/10/06 22:38:47;;;;;;;19.50;6.90;;;;;;;;;;6101100;23;20153;-95
2023/10/06 22:41:54;;;;;;;13.95;6.20;;;;;;;;;;6100675;23;20154;-93
2023/10/06 22:45:03;;;;;;;12.90;5.80;;;;;;;;;;6100153;23;20214;-94
2023/10/06 22:47:48;;;;;;;15.25;6.65;;;;;;;;;;6094937;23;20226;-94
2023/10/06 22:50:56;;;;;;;13.50;5.80;;;;;;;;;;6096988;23;20242;-92
2023/10/06 22:54:01;;;;;;;16.55;6.72;;;;;;;;;;6094962;23;20501;-93
2023/10/06 22:57:07;;;;;;;14.95;6.10;;;;;;;;;;6095065;23;20166;-94
2023/10/06 23:00:16;;;;;;;15.82;6.28;;;;;;;;;;6095736;23;20173;-93
2023/10/06 23:03:22;;;;;;;14.70;6.20;;;;;;;;;;6096230;23;20170;-91
2023/10/06 23:06:29;;;;;;;15.32;6.10;;;;;;;;;;6095528;23;20154;-94
2023/10/06 23:09:35;;;;;;;12.65;6.05;;;;;;;;;;6094686;23;20197;-95
2023/10/06 23:12:40;;;;;;;15.05;6.32;;;;;;;;;;6096032;23;20173;-94
2023/10/06 23:15:47;;;;;;;15.05;6.40;;;;;;;;;;6097107;23;20177;-93
2023/10/06 23:18:55;;;;;;;12.90;5.38;;;;;;;;;;6095352;23;20173;-94
2023/10/06 23:22:02;;;;;;;26.20;6.82;;;;;;;;;;6095493;23;20165;-92
2023/10/06 23:25:12;;;;;;;15.15;6.32;;;;;;;;;;6095642;23;20153;-92
2023/10/06 23:28:17;;;;;;;14.38;5.85;;;;;;;;;;6095340;23;20173;-93
2023/10/06 23:31:24;;;;;;;15.32;6.45;;;;;;;;;;6095612;23;20628;-92
2023/10/06 23:34:29;;;;;;;15.32;6.38;;;;;;;;;;6095139;23;20196;-94
2023/10/06 23:37:36;;;;;;;16.75;6.18;;;;;;;;;;6094128;23;20304;-94
2023/10/06 23:40:43;;;;;;;15.30;6.55;;;;;;;;;;6093730;23;20200;-93
2023/10/06 23:43:48;;;;;;;15.73;6.40;;;;;;;;;;6094992;23;20206;-93
2023/10/06 23:46:55;;;;;;;17.92;6.53;;;;;;;;;;6095273;23;20194;-92
2023/10/06 23:50:02;;;;;;;14.02;6.32;;;;;;;;;;6093903;23;20524;-94
2023/10/06 23:53:09;;;;;;;15.45;6.65;;;;;;;;;;6093336;23;20169;-94
2023/10/06 23:56:30;;;;;;;14.43;6.80;;;;;;;;;;6094035;23;20210;-92
2023/10/06 23:59:41;;;;;;;19.58;7.40;;;;;;;;;;6094648;23;20174;-92
